virtualACA

Welcome To Montreal - Pierre Elliott Trudeau International CYUL

Hub Roster

Pilot Domicile Rank
Mike Avila - ACA1002CanadaChief Executive Officer
Pierre Dequack - ACA2656FranceSenior Captain
Jean-Pierre Audet - ACA2903CanadaChief Pilot
Jean-Pierre Chalifoux - ACA2970CanadaChief Pilot
Neil Blaikie - ACA3070CanadaChief Pilot
Phinehas Lawson - ACA3190CanadaChief Pilot
John Simmons - ACA3243CanadaSenior Captain
Bob Gorman - ACA3302CanadaFirst Officer
Sfaxi Hamza - ACA3309CanadaNew Hire

Current Vatsim Weather


CYUL 301900Z 12011G17KT 15SM -RA FEW008 FEW012 BKN027 OVC038 07/05 A2988 RMK SF1SC2SC4SC2 SF TR SLP121
Montreal - Pierre Elliott Trudeau International